createdAt,value
2022-12-03T14:04:41.378Z,102183.91
2022-12-03T14:07:10.076Z,102188.84
2022-12-03T14:09:44.899Z,102185.66
2022-12-03T14:12:35.725Z,102184.25
2022-12-03T14:15:10.169Z,102178.19
2022-12-03T14:17:41.823Z,102173.91
2022-12-03T14:20:14.713Z,102166.75
2022-12-03T14:22:46.380Z,102162.31
2022-12-03T14:25:19.928Z,102169.16
2022-12-03T14:28:21.709Z,102156.03
2022-12-03T14:30:54.130Z,102165.59
2022-12-03T14:33:23.031Z,102152.63
2022-12-03T14:35:56.871Z,102156.03
2022-12-03T14:38:25.619Z,102158.50
2022-12-03T14:40:54.202Z,102157.75
2022-12-03T14:43:22.881Z,102157.31
2022-12-03T14:45:52.119Z,102161.47
2022-12-03T14:48:20.734Z,102161.28
2022-12-03T14:50:49.469Z,102162.78
2022-12-03T14:53:25.599Z,102166.56
2022-12-03T14:55:58.476Z,102155.81
2022-12-03T14:58:27.337Z,102162.34
2022-12-03T15:00:55.993Z,102159.34
2022-12-03T15:03:24.648Z,102168.19
2022-12-03T15:05:53.343Z,102160.34
2022-12-03T15:08:25.718Z,102165.72
2022-12-03T15:11:33.257Z,102165.47
2022-12-03T15:14:08.581Z,102175.38
2022-12-03T15:16:37.327Z,102172.28
2022-12-03T15:19:06.184Z,102172.75
2022-12-03T15:21:37.773Z,102176.25
2022-12-03T15:24:11.894Z,102174.53
2022-12-03T15:26:41.985Z,102178.94
2022-12-03T15:29:15.799Z,102168.47
2022-12-03T15:31:49.277Z,102173.75
2022-12-03T15:34:22.432Z,102177.44
2022-12-03T15:37:09.651Z,102169.53
2022-12-03T15:39:48.357Z,102172.03
2022-12-03T15:42:49.807Z,102170.19
2022-12-03T15:45:18.892Z,102167.78
2022-12-03T15:47:47.599Z,102169.06
2022-12-03T15:50:26.325Z,102182.56
2022-12-03T15:53:00.963Z,102174.75
2022-12-03T15:55:53.622Z,102179.34
2022-12-03T15:58:22.515Z,102174.88
2022-12-03T16:00:54.162Z,102175.22
2022-12-03T16:03:23.043Z,102168.94
2022-12-03T16:05:59.184Z,102160.91
2022-12-03T16:08:28.160Z,102178.81
2022-12-03T16:11:10.352Z,102168.41
2022-12-03T16:13:42.294Z,102162.22
2022-12-03T16:16:10.844Z,102166.50
2022-12-03T16:18:42.082Z,102172.56
2022-12-03T16:21:35.452Z,102163.22
2022-12-03T16:24:09.439Z,102151.63
2022-12-03T16:26:46.432Z,102154.41
2022-12-03T16:29:15.078Z,102147.16
2022-12-03T16:32:01.475Z,102154.16
2022-12-03T16:34:36.426Z,102143.44
2022-12-03T16:37:10.976Z,102145.59
2022-12-03T16:39:40.024Z,102142.69
2022-12-03T16:42:17.167Z,102134.00
2022-12-03T16:47:58.599Z,102126.63
2022-12-03T16:50:29.955Z,102122.34
2022-12-03T16:52:58.991Z,102145.59
2022-12-03T16:56:09.541Z,102151.38
2022-12-03T16:58:55.864Z,102151.50
2022-12-03T17:01:44.901Z,102151.50
2022-12-03T17:04:13.616Z,102147.03
2022-12-03T17:06:42.393Z,102150.78
2022-12-03T17:09:11.067Z,102151.50
2022-12-03T17:11:39.718Z,102148.22
2022-12-03T17:14:10.373Z,102151.63
2022-12-03T17:16:39.186Z,102149.94
2022-12-03T17:19:08.096Z,102153.75
2022-12-03T17:21:44.150Z,102154.28
2022-12-03T17:24:27.624Z,102150.97
2022-12-03T17:27:00.666Z,102158.81
2022-12-03T17:29:34.693Z,102154.69
2022-12-03T17:32:03.477Z,102150.97
2022-12-03T17:34:32.160Z,102150.13
2022-12-03T17:37:00.718Z,102145.78
2022-12-03T17:39:29.308Z,102143.69
2022-12-03T17:41:57.965Z,102143.75
2022-12-03T17:44:26.623Z,102149.56
2022-12-03T17:46:57.241Z,102143.88
2022-12-03T17:49:31.307Z,102147.84
2022-12-03T17:52:00.413Z,102150.78
2022-12-03T17:54:43.480Z,102151.75
2022-12-03T17:57:17.958Z,102155.06
2022-12-03T17:59:46.531Z,102146.50
2022-12-03T18:02:17.115Z,102137.69
2022-12-03T18:04:45.795Z,102143.53
2022-12-03T18:07:14.354Z,102129.88
2022-12-03T18:09:42.964Z,102135.97
2022-12-03T18:12:11.678Z,102130.19
2022-12-03T18:14:40.291Z,102128.16
2022-12-03T18:17:09.020Z,102128.06
2022-12-03T18:19:39.515Z,102124.97
2022-12-03T18:22:08.421Z,102126.09
2022-12-03T18:24:37.268Z,102118.88
2022-12-03T18:27:06.082Z,102124.03
2022-12-03T18:29:34.724Z,102120.47
2022-12-03T18:32:03.572Z,102113.38
2022-12-03T18:34:32.361Z,102108.44
2022-12-03T18:37:03.477Z,102113.19
2022-12-03T18:39:36.146Z,102115.91
2022-12-03T18:42:16.050Z,102111.69
2022-12-03T18:44:49.649Z,102111.31
2022-12-03T18:47:21.097Z,102109.22
2022-12-03T18:49:50.212Z,102111.41
2022-12-03T18:52:24.238Z,102107.19
2022-12-03T18:54:53.785Z,102111.66
2022-12-03T18:57:22.419Z,102107.88
2022-12-03T18:59:51.056Z,102104.47
2022-12-03T19:05:12.031Z,102106.63
2022-12-03T19:07:42.689Z,102110.78
2022-12-03T19:10:13.631Z,102113.16
2022-12-03T19:12:57.362Z,102115.41
2022-12-03T19:15:29.079Z,102109.13
2022-12-03T19:17:57.759Z,102121.38
2022-12-03T19:20:29.224Z,102113.41
2022-12-03T19:23:01.765Z,102122.16
2022-12-03T19:25:33.202Z,102113.28
2022-12-03T19:28:04.652Z,102112.66
2022-12-03T19:30:33.332Z,102120.47
2022-12-03T19:33:04.259Z,102110.53
2022-12-03T19:35:33.103Z,102110.84
2022-12-03T19:38:04.908Z,102111.41
2022-12-03T19:40:33.564Z,102114.75
2022-12-03T19:43:05.255Z,102110.44
2022-12-03T19:45:33.890Z,102099.22
2022-12-03T19:48:02.630Z,102100.13
2022-12-03T19:50:32.041Z,102094.81
2022-12-03T19:53:00.676Z,102100.13
2022-12-03T19:55:31.494Z,102102.72
2022-12-03T19:58:02.899Z,102094.88
2022-12-03T20:00:35.792Z,102100.25
2022-12-03T20:03:07.664Z,102103.50
2022-12-03T20:05:44.689Z,102091.44
2022-12-03T20:08:13.347Z,102101.13
2022-12-03T20:10:46.767Z,102101.13
2022-12-03T20:13:21.558Z,102106.25
2022-12-03T20:15:52.779Z,102103.34
2022-12-03T20:18:21.508Z,102097.63
2022-12-03T20:20:52.243Z,102098.38
2022-12-03T20:23:20.960Z,102096.66
2022-12-03T20:25:57.798Z,102086.59
2022-12-03T20:28:27.952Z,102092.19
2022-12-03T20:31:06.561Z,102085.25
2022-12-03T20:33:38.174Z,102089.81
2022-12-03T20:36:08.163Z,102093.09
2022-12-03T20:38:37.229Z,102090.69
2022-12-03T20:41:14.571Z,102088.88
2022-12-03T20:43:43.751Z,102085.53
2022-12-03T20:46:15.203Z,102075.47
2022-12-03T20:48:47.498Z,102079.16
2022-12-03T20:51:22.627Z,102077.06
2022-12-03T20:53:54.161Z,102068.88
2022-12-03T20:56:46.798Z,102063.50
2022-12-03T20:59:19.197Z,102067.03
2022-12-03T21:01:49.401Z,102066.47
2022-12-03T21:04:18.742Z,102061.66
2022-12-03T21:06:47.980Z,102061.28
2022-12-03T21:09:19.473Z,102067.59
2022-12-03T21:11:53.075Z,102060.81
2022-12-03T21:14:21.746Z,102065.28
2022-12-03T21:17:08.889Z,102059.91
2022-12-03T21:19:38.999Z,102055.59
2022-12-03T21:22:08.578Z,102046.66
2022-12-03T21:24:37.708Z,102045.34
2022-12-03T21:27:14.617Z,102038.91
2022-12-03T21:29:46.976Z,102036.41
2022-12-03T21:32:15.743Z,102048.97
2022-12-03T21:34:44.495Z,102063.03
2022-12-03T21:37:15.562Z,102062.25
2022-12-03T21:39:44.160Z,102054.75
2022-12-03T21:42:19.349Z,102058.31
2022-12-03T21:45:04.110Z,102055.88
2022-12-03T21:47:37.213Z,102062.69
2022-12-03T21:50:10.456Z,102063.38
2022-12-03T21:52:39.279Z,102059.03
2022-12-03T21:55:09.138Z,102061.00
2022-12-03T21:57:42.925Z,102061.59
2022-12-03T22:00:13.682Z,102057.44
2022-12-03T22:02:42.538Z,102061.31
2022-12-03T22:05:12.852Z,102060.72
2022-12-03T22:07:42.401Z,102057.44
2022-12-03T22:10:13.321Z,102039.03
2022-12-03T22:12:44.143Z,102044.50
2022-12-03T22:15:18.726Z,102035.22
2022-12-03T22:17:48.921Z,102029.75
2022-12-03T22:20:18.922Z,102045.75
2022-12-03T22:22:47.736Z,102051.00
2022-12-03T22:25:16.651Z,102049.28
2022-12-03T22:27:48.680Z,102048.38
2022-12-03T22:30:17.692Z,102039.56
2022-12-03T22:32:46.619Z,102045.75
2022-12-03T22:35:15.474Z,102050.09
2022-12-03T22:37:44.123Z,102049.84
2022-12-03T22:40:13.756Z,102055.47
2022-12-03T22:42:47.760Z,102050.50
2022-12-03T22:45:21.389Z,102059.56
2022-12-03T22:47:50.219Z,102056.69
2022-12-03T22:50:19.278Z,102057.44
2022-12-03T22:52:47.883Z,102056.19
2022-12-03T22:55:16.862Z,102046.78
2022-12-03T22:57:45.459Z,102050.63
2022-12-03T23:00:17.551Z,102041.66
2022-12-03T23:02:48.215Z,102030.81
2022-12-03T23:05:17.222Z,102032.81
2022-12-03T23:07:45.935Z,102024.03
2022-12-03T23:10:14.637Z,102018.66
2022-12-03T23:12:43.464Z,102023.78
2022-12-03T23:15:13.037Z,102016.16
2022-12-03T23:17:42.630Z,102018.66
2022-12-03T23:20:15.084Z,102021.50
2022-12-03T23:22:43.768Z,102021.28
2022-12-03T23:25:13.665Z,102022.19
2022-12-03T23:27:42.511Z,102022.19
2022-12-03T23:30:14.104Z,102022.19
2022-12-03T23:32:43.768Z,102015.34
2022-12-03T23:35:14.631Z,102022.63
2022-12-03T23:37:45.228Z,102022.75
2022-12-03T23:40:15.779Z,102033.00
2022-12-03T23:42:44.492Z,102041.81
2022-12-03T23:45:13.438Z,102021.16
2022-12-03T23:47:42.178Z,102029.59
2022-12-03T23:50:13.942Z,102027.91
2022-12-03T23:52:42.700Z,102025.25
2022-12-03T23:55:12.087Z,102019.84
2022-12-03T23:57:40.775Z,102009.97
